sensor_id;sensor_type;location;lat;lon;timestamp;temperature;humidity
46732;DHT22;32477;51.474;5.696;2023-03-01T00:00:53;-0.90;99.90
46732;DHT22;32477;51.474;5.696;2023-03-01T00:03:19;-0.90;99.90
46732;DHT22;32477;51.474;5.696;2023-03-01T00:05:45;-1.00;99.90
46732;DHT22;32477;51.474;5.696;2023-03-01T00:08:11;-1.20;99.90
46732;DHT22;32477;51.474;5.696;2023-03-01T00:10:37;-1.20;99.90
46732;DHT22;32477;51.474;5.696;2023-03-01T00:13:03;-1.40;99.90
46732;DHT22;32477;51.474;5.696;2023-03-01T00:15:31;-1.40;99.90
46732;DHT22;32477;51.474;5.696;2023-03-01T00:17:57;-1.30;99.90
46732;DHT22;32477;51.474;5.696;2023-03-01T00:20:22;-1.30;99.90
46732;DHT22;32477;51.474;5.696;2023-03-01T00:22:48;-1.30;99.90
46732;DHT22;32477;51.474;5.696;2023-03-01T00:25:14;-1.30;99.90
46732;DHT22;32477;51.474;5.696;2023-03-01T00:27:39;-1.40;99.90
46732;DHT22;32477;51.474;5.696;2023-03-01T00:30:05;-1.40;99.90
46732;DHT22;32477;51.474;5.696;2023-03-01T00:32:31;-1.40;99.90
46732;DHT22;32477;51.474;5.696;2023-03-01T00:34:57;-1.50;99.90
46732;DHT22;32477;51.474;5.696;2023-03-01T00:37:23;-1.60;99.90
46732;DHT22;32477;51.474;5.696;2023-03-01T00:39:49;-1.60;99.90
46732;DHT22;32477;51.474;5.696;2023-03-01T00:42:15;-1.60;99.90
46732;DHT22;32477;51.474;5.696;2023-03-01T00:44:41;-1.70;99.90
46732;DHT22;32477;51.474;5.696;2023-03-01T00:47:06;-1.70;99.90
46732;DHT22;32477;51.474;5.696;2023-03-01T00:49:32;-1.50;99.90
46732;DHT22;32477;51.474;5.696;2023-03-01T00:51:57;-1.50;99.90
46732;DHT22;32477;51.474;5.696;2023-03-01T00:54:23;-1.50;99.90
46732;DHT22;32477;51.474;5.696;2023-03-01T00:56:49;-1.60;99.90
46732;DHT22;32477;51.474;5.696;2023-03-01T00:59:14;-1.70;99.90
46732;DHT22;32477;51.474;5.696;2023-03-01T01:01:40;-1.80;99.90
46732;DHT22;32477;51.474;5.696;2023-03-01T01:04:08;-1.80;99.90
46732;DHT22;32477;51.474;5.696;2023-03-01T01:06:40;-1.80;99.90
46732;DHT22;32477;51.474;5.696;2023-03-01T01:09:09;-1.90;99.90
46732;DHT22;32477;51.474;5.696;2023-03-01T01:11:35;-2.00;99.90
46732;DHT22;32477;51.474;5.696;2023-03-01T01:14:02;-2.00;99.90
46732;DHT22;32477;51.474;5.696;2023-03-01T01:16:28;-2.00;99.90
46732;DHT22;32477;51.474;5.696;2023-03-01T01:18:54;-2.00;99.90
46732;DHT22;32477;51.474;5.696;2023-03-01T01:21:23;-2.10;99.90
46732;DHT22;32477;51.474;5.696;2023-03-01T01:23:49;-2.10;99.90
46732;DHT22;32477;51.474;5.696;2023-03-01T01:26:24;-2.10;99.90
46732;DHT22;32477;51.474;5.696;2023-03-01T01:28:50;-2.00;99.90
46732;DHT22;32477;51.474;5.696;2023-03-01T01:31:17;-2.00;99.90
46732;DHT22;32477;51.474;5.696;2023-03-01T01:33:43;-1.90;99.90
46732;DHT22;32477;51.474;5.696;2023-03-01T01:36:09;-1.80;99.90
46732;DHT22;32477;51.474;5.696;2023-03-01T01:38:36;-1.80;99.90
46732;DHT22;32477;51.474;5.696;2023-03-01T01:41:03;-1.80;99.90
46732;DHT22;32477;51.474;5.696;2023-03-01T01:43:32;-1.70;99.90
46732;DHT22;32477;51.474;5.696;2023-03-01T01:46:03;-1.70;99.90
46732;DHT22;32477;51.474;5.696;2023-03-01T01:48:39;-1.70;99.90
46732;DHT22;32477;51.474;5.696;2023-03-01T01:51:11;-1.70;99.90
46732;DHT22;32477;51.474;5.696;2023-03-01T01:53:38;-1.80;99.90
46732;DHT22;32477;51.474;5.696;2023-03-01T01:56:07;-1.70;99.90
46732;DHT22;32477;51.474;5.696;2023-03-01T01:58:34;-1.70;99.90
46732;DHT22;32477;51.474;5.696;2023-03-01T02:01:01;-1.60;99.90
46732;DHT22;32477;51.474;5.696;2023-03-01T02:03:31;-1.60;99.90
46732;DHT22;32477;51.474;5.696;2023-03-01T02:06:31;-1.60;99.90
46732;DHT22;32477;51.474;5.696;2023-03-01T02:09:02;-1.80;99.90
46732;DHT22;32477;51.474;5.696;2023-03-01T02:11:30;-1.80;99.90
46732;DHT22;32477;51.474;5.696;2023-03-01T02:13:56;-1.90;99.90
46732;DHT22;32477;51.474;5.696;2023-03-01T02:16:22;-1.80;99.90
46732;DHT22;32477;51.474;5.696;2023-03-01T02:18:49;-1.80;99.90
46732;DHT22;32477;51.474;5.696;2023-03-01T02:27:06;-1.70;99.90
46732;DHT22;32477;51.474;5.696;2023-03-01T02:29:32;-1.70;99.90
46732;DHT22;32477;51.474;5.696;2023-03-01T02:32:00;-1.80;99.90
46732;DHT22;32477;51.474;5.696;2023-03-01T02:34:27;-1.80;99.90
46732;DHT22;32477;51.474;5.696;2023-03-01T02:36:55;-1.80;99.90
46732;DHT22;32477;51.474;5.696;2023-03-01T02:39:33;-1.80;99.90
46732;DHT22;32477;51.474;5.696;2023-03-01T02:41:59;-1.70;99.90
46732;DHT22;32477;51.474;5.696;2023-03-01T02:44:26;-1.80;99.90
46732;DHT22;32477;51.474;5.696;2023-03-01T02:46:53;-1.80;99.90
46732;DHT22;32477;51.474;5.696;2023-03-01T02:49:27;-1.70;99.90
46732;DHT22;32477;51.474;5.696;2023-03-01T02:52:23;-1.70;99.90
46732;DHT22;32477;51.474;5.696;2023-03-01T02:57:25;-1.80;99.90
46732;DHT22;32477;51.474;5.696;2023-03-01T02:59:57;-1.90;99.90
46732;DHT22;32477;51.474;5.696;2023-03-01T03:02:27;-1.90;99.90
46732;DHT22;32477;51.474;5.696;2023-03-01T03:05:15;-1.80;99.90
46732;DHT22;32477;51.474;5.696;2023-03-01T03:07:43;-1.70;99.90
46732;DHT22;32477;51.474;5.696;2023-03-01T03:10:21;-1.70;99.90
46732;DHT22;32477;51.474;5.696;2023-03-01T03:12:51;-1.70;99.90
46732;DHT22;32477;51.474;5.696;2023-03-01T03:15:18;-1.80;99.90
46732;DHT22;32477;51.474;5.696;2023-03-01T03:17:44;-1.90;99.90
46732;DHT22;32477;51.474;5.696;2023-03-01T03:20:12;-2.00;99.90
46732;DHT22;32477;51.474;5.696;2023-03-01T03:22:41;-2.00;99.90
46732;DHT22;32477;51.474;5.696;2023-03-01T03:25:07;-1.90;99.90
46732;DHT22;32477;51.474;5.696;2023-03-01T03:27:40;-2.00;99.90
46732;DHT22;32477;51.474;5.696;2023-03-01T03:30:08;-2.00;99.90
46732;DHT22;32477;51.474;5.696;2023-03-01T03:32:35;-1.90;99.90
46732;DHT22;32477;51.474;5.696;2023-03-01T03:35:03;-1.90;99.90
46732;DHT22;32477;51.474;5.696;2023-03-01T03:37:34;-2.00;99.90
46732;DHT22;32477;51.474;5.696;2023-03-01T03:40:20;-2.10;99.90
46732;DHT22;32477;51.474;5.696;2023-03-01T03:42:46;-2.20;99.90
46732;DHT22;32477;51.474;5.696;2023-03-01T03:45:12;-2.20;99.90
46732;DHT22;32477;51.474;5.696;2023-03-01T03:47:37;-2.20;99.90
46732;DHT22;32477;51.474;5.696;2023-03-01T03:50:03;-2.20;99.90
46732;DHT22;32477;51.474;5.696;2023-03-01T03:52:28;-2.20;99.90
46732;DHT22;32477;51.474;5.696;2023-03-01T03:54:54;-2.20;99.90
46732;DHT22;32477;51.474;5.696;2023-03-01T03:57:20;-2.20;99.90
46732;DHT22;32477;51.474;5.696;2023-03-01T03:59:46;-2.20;99.90
46732;DHT22;32477;51.474;5.696;2023-03-01T04:02:12;-2.20;99.90
46732;DHT22;32477;51.474;5.696;2023-03-01T04:04:37;-2.20;99.90
46732;DHT22;32477;51.474;5.696;2023-03-01T04:07:03;-2.10;99.90
46732;DHT22;32477;51.474;5.696;2023-03-01T04:09:29;-2.20;99.90
46732;DHT22;32477;51.474;5.696;2023-03-01T04:11:55;-2.20;99.90
46732;DHT22;32477;51.474;5.696;2023-03-01T04:14:21;-2.30;99.90
46732;DHT22;32477;51.474;5.696;2023-03-01T04:16:46;-2.30;99.90
46732;DHT22;32477;51.474;5.696;2023-03-01T04:19:12;-2.30;99.90
46732;DHT22;32477;51.474;5.696;2023-03-01T04:21:40;-2.20;99.90
46732;DHT22;32477;51.474;5.696;2023-03-01T04:24:06;-2.10;99.90
46732;DHT22;32477;51.474;5.696;2023-03-01T04:26:32;-2.10;99.90
46732;DHT22;32477;51.474;5.696;2023-03-01T04:28:57;-2.10;99.90
46732;DHT22;32477;51.474;5.696;2023-03-01T04:31:23;-2.10;99.90
46732;DHT22;32477;51.474;5.696;2023-03-01T04:33:51;-2.10;99.90
46732;DHT22;32477;51.474;5.696;2023-03-01T04:36:17;-2.10;99.90
46732;DHT22;32477;51.474;5.696;2023-03-01T04:38:44;-2.10;99.90
46732;DHT22;32477;51.474;5.696;2023-03-01T04:41:13;-2.10;99.90
46732;DHT22;32477;51.474;5.696;2023-03-01T04:43:39;-2.10;99.90
46732;DHT22;32477;51.474;5.696;2023-03-01T04:46:07;-2.10;99.90
46732;DHT22;32477;51.474;5.696;2023-03-01T04:48:35;-2.00;99.90
46732;DHT22;32477;51.474;5.696;2023-03-01T04:51:01;-2.00;99.90
46732;DHT22;32477;51.474;5.696;2023-03-01T04:53:27;-2.10;99.90
46732;DHT22;32477;51.474;5.696;2023-03-01T04:55:56;-2.10;99.90
46732;DHT22;32477;51.474;5.696;2023-03-01T04:58:23;-2.10;99.90
46732;DHT22;32477;51.474;5.696;2023-03-01T05:00:49;-2.00;99.90
46732;DHT22;32477;51.474;5.696;2023-03-01T05:03:14;-2.00;99.90
46732;DHT22;32477;51.474;5.696;2023-03-01T05:05:45;-2.00;99.90
46732;DHT22;32477;51.474;5.696;2023-03-01T05:08:11;-2.00;99.90
46732;DHT22;32477;51.474;5.696;2023-03-01T05:10:44;-2.10;99.90
46732;DHT22;32477;51.474;5.696;2023-03-01T05:13:11;-2.10;99.90
46732;DHT22;32477;51.474;5.696;2023-03-01T05:15:39;-2.20;99.90
46732;DHT22;32477;51.474;5.696;2023-03-01T05:18:05;-2.20;99.90
46732;DHT22;32477;51.474;5.696;2023-03-01T05:20:37;-2.30;99.90
46732;DHT22;32477;51.474;5.696;2023-03-01T05:23:03;-2.40;99.90
46732;DHT22;32477;51.474;5.696;2023-03-01T05:25:31;-2.40;99.90
46732;DHT22;32477;51.474;5.696;2023-03-01T05:27:59;-2.30;99.90
46732;DHT22;32477;51.474;5.696;2023-03-01T05:30:30;-2.50;99.90
46732;DHT22;32477;51.474;5.696;2023-03-01T05:32:56;-2.50;99.90
46732;DHT22;32477;51.474;5.696;2023-03-01T05:35:21;-2.50;99.90
46732;DHT22;32477;51.474;5.696;2023-03-01T05:37:48;-2.50;99.90
46732;DHT22;32477;51.474;5.696;2023-03-01T05:40:22;-2.50;99.90
46732;DHT22;32477;51.474;5.696;2023-03-01T05:42:54;-2.60;99.90
46732;DHT22;32477;51.474;5.696;2023-03-01T05:45:21;-2.60;99.90
46732;DHT22;32477;51.474;5.696;2023-03-01T05:47:48;-2.70;99.90
46732;DHT22;32477;51.474;5.696;2023-03-01T05:50:25;-2.70;99.90
46732;DHT22;32477;51.474;5.696;2023-03-01T05:52:56;-2.70;99.90
46732;DHT22;32477;51.474;5.696;2023-03-01T05:55:22;-2.80;99.90
46732;DHT22;32477;51.474;5.696;2023-03-01T05:57:48;-2.80;99.90
46732;DHT22;32477;51.474;5.696;2023-03-01T06:00:16;-2.80;99.90
46732;DHT22;32477;51.474;5.696;2023-03-01T06:02:43;-2.80;99.90
46732;DHT22;32477;51.474;5.696;2023-03-01T06:05:10;-2.70;99.90
46732;DHT22;32477;51.474;5.696;2023-03-01T06:07:36;-2.80;99.90
46732;DHT22;32477;51.474;5.696;2023-03-01T06:10:03;-2.80;99.90
46732;DHT22;32477;51.474;5.696;2023-03-01T06:12:37;-2.90;99.90
46732;DHT22;32477;51.474;5.696;2023-03-01T06:15:04;-2.90;99.90
46732;DHT22;32477;51.474;5.696;2023-03-01T06:17:32;-2.90;99.90
46732;DHT22;32477;51.474;5.696;2023-03-01T06:19:58;-2.90;99.90
46732;DHT22;32477;51.474;5.696;2023-03-01T06:22:24;-2.80;99.90
46732;DHT22;32477;51.474;5.696;2023-03-01T06:24:49;-2.80;99.90
46732;DHT22;32477;51.474;5.696;2023-03-01T06:27:15;-2.80;99.90
46732;DHT22;32477;51.474;5.696;2023-03-01T06:29:41;-2.90;99.90
46732;DHT22;32477;51.474;5.696;2023-03-01T06:32:07;-2.80;99.90
46732;DHT22;32477;51.474;5.696;2023-03-01T06:34:33;-2.90;99.90
46732;DHT22;32477;51.474;5.696;2023-03-01T06:36:59;-2.90;99.90
46732;DHT22;32477;51.474;5.696;2023-03-01T06:39:24;-3.00;99.90
46732;DHT22;32477;51.474;5.696;2023-03-01T06:41:52;-3.00;99.90
46732;DHT22;32477;51.474;5.696;2023-03-01T06:44:18;-3.00;99.90
46732;DHT22;32477;51.474;5.696;2023-03-01T06:46:44;-2.90;99.90
46732;DHT22;32477;51.474;5.696;2023-03-01T06:49:09;-2.90;99.90
46732;DHT22;32477;51.474;5.696;2023-03-01T06:51:36;-2.90;99.90
46732;DHT22;32477;51.474;5.696;2023-03-01T06:54:03;-3.00;99.90
46732;DHT22;32477;51.474;5.696;2023-03-01T06:56:30;-3.00;99.90
46732;DHT22;32477;51.474;5.696;2023-03-01T06:58:55;-2.90;99.90
46732;DHT22;32477;51.474;5.696;2023-03-01T07:01:21;-2.90;99.90
46732;DHT22;32477;51.474;5.696;2023-03-01T07:03:46;-2.80;99.90
46732;DHT22;32477;51.474;5.696;2023-03-01T07:06:12;-2.70;99.90
46732;DHT22;32477;51.474;5.696;2023-03-01T07:08:38;-2.70;99.90
46732;DHT22;32477;51.474;5.696;2023-03-01T07:11:03;-2.70;99.90
46732;DHT22;32477;51.474;5.696;2023-03-01T07:13:29;-2.70;99.90
46732;DHT22;32477;51.474;5.696;2023-03-01T07:15:55;-2.60;99.90
46732;DHT22;32477;51.474;5.696;2023-03-01T07:18:21;-2.40;99.90
46732;DHT22;32477;51.474;5.696;2023-03-01T07:20:46;-2.40;99.90
46732;DHT22;32477;51.474;5.696;2023-03-01T07:23:12;-2.30;99.90
46732;DHT22;32477;51.474;5.696;2023-03-01T07:25:38;-2.20;99.90
46732;DHT22;32477;51.474;5.696;2023-03-01T07:28:03;-2.20;99.90
46732;DHT22;32477;51.474;5.696;2023-03-01T07:30:29;-2.20;99.90
46732;DHT22;32477;51.474;5.696;2023-03-01T07:32:56;-2.00;99.90
46732;DHT22;32477;51.474;5.696;2023-03-01T07:35:23;-1.70;99.90
46732;DHT22;32477;51.474;5.696;2023-03-01T07:37:50;-1.50;99.90
46732;DHT22;32477;51.474;5.696;2023-03-01T07:40:16;-1.20;99.90
46732;DHT22;32477;51.474;5.696;2023-03-01T07:42:41;-0.70;99.90
46732;DHT22;32477;51.474;5.696;2023-03-01T07:45:07;-0.10;99.90
46732;DHT22;32477;51.474;5.696;2023-03-01T07:47:33;0.50;99.90
46732;DHT22;32477;51.474;5.696;2023-03-01T07:49:58;1.00;99.90
46732;DHT22;32477;51.474;5.696;2023-03-01T07:52:24;1.50;99.90
46732;DHT22;32477;51.474;5.696;2023-03-01T07:54:50;2.20;99.90
46732;DHT22;32477;51.474;5.696;2023-03-01T07:57:16;2.90;99.90
46732;DHT22;32477;51.474;5.696;2023-03-01T07:59:42;3.30;99.90
46732;DHT22;32477;51.474;5.696;2023-03-01T08:02:08;3.50;99.90
46732;DHT22;32477;51.474;5.696;2023-03-01T08:04:34;3.70;99.90
46732;DHT22;32477;51.474;5.696;2023-03-01T08:07:00;3.90;99.90
46732;DHT22;32477;51.474;5.696;2023-03-01T08:09:26;3.90;99.90
46732;DHT22;32477;51.474;5.696;2023-03-01T08:11:51;4.40;99.90
46732;DHT22;32477;51.474;5.696;2023-03-01T08:14:17;4.60;99.90
46732;DHT22;32477;51.474;5.696;2023-03-01T08:16:43;5.20;99.90
46732;DHT22;32477;51.474;5.696;2023-03-01T08:19:10;5.40;99.90
46732;DHT22;32477;51.474;5.696;2023-03-01T08:21:37;5.90;99.90
46732;DHT22;32477;51.474;5.696;2023-03-01T08:24:04;6.00;99.90
46732;DHT22;32477;51.474;5.696;2023-03-01T08:26:31;5.90;99.90
46732;DHT22;32477;51.474;5.696;2023-03-01T08:28:57;5.80;99.90
46732;DHT22;32477;51.474;5.696;2023-03-01T08:31:25;5.50;99.90
46732;DHT22;32477;51.474;5.696;2023-03-01T08:33:55;6.00;99.90
46732;DHT22;32477;51.474;5.696;2023-03-01T08:36:26;5.70;99.90
46732;DHT22;32477;51.474;5.696;2023-03-01T08:38:53;6.00;99.90
46732;DHT22;32477;51.474;5.696;2023-03-01T08:41:19;6.70;99.90
46732;DHT22;32477;51.474;5.696;2023-03-01T08:43:45;6.70;99.80
46732;DHT22;32477;51.474;5.696;2023-03-01T08:46:11;7.00;98.00
46732;DHT22;32477;51.474;5.696;2023-03-01T08:48:37;7.70;96.80
46732;DHT22;32477;51.474;5.696;2023-03-01T08:51:17;7.70;96.70
46732;DHT22;32477;51.474;5.696;2023-03-01T08:53:43;8.00;95.00
46732;DHT22;32477;51.474;5.696;2023-03-01T08:56:11;7.60;96.30
46732;DHT22;32477;51.474;5.696;2023-03-01T08:58:37;7.80;95.20
46732;DHT22;32477;51.474;5.696;2023-03-01T09:01:10;7.50;95.00
46732;DHT22;32477;51.474;5.696;2023-03-01T09:03:36;7.10;95.60
46732;DHT22;32477;51.474;5.696;2023-03-01T09:06:03;7.20;96.40
46732;DHT22;32477;51.474;5.696;2023-03-01T09:08:30;7.10;95.90
46732;DHT22;32477;51.474;5.696;2023-03-01T09:10:56;7.60;95.20
46732;DHT22;32477;51.474;5.696;2023-03-01T09:13:22;7.50;95.40
46732;DHT22;32477;51.474;5.696;2023-03-01T09:15:52;8.20;94.50
46732;DHT22;32477;51.474;5.696;2023-03-01T09:18:18;7.90;94.70
46732;DHT22;32477;51.474;5.696;2023-03-01T09:20:43;8.70;93.50
46732;DHT22;32477;51.474;5.696;2023-03-01T09:23:09;8.40;93.10
46732;DHT22;32477;51.474;5.696;2023-03-01T09:25:35;8.90;92.20
46732;DHT22;32477;51.474;5.696;2023-03-01T09:28:01;8.90;92.40
46732;DHT22;32477;51.474;5.696;2023-03-01T09:30:27;9.20;92.60
46732;DHT22;32477;51.474;5.696;2023-03-01T09:32:53;9.00;90.50
46732;DHT22;32477;51.474;5.696;2023-03-01T09:35:18;8.30;92.00
46732;DHT22;32477;51.474;5.696;2023-03-01T09:37:45;8.30;91.80
46732;DHT22;32477;51.474;5.696;2023-03-01T09:40:17;8.50;91.60
46732;DHT22;32477;51.474;5.696;2023-03-01T09:43:06;8.00;92.00
46732;DHT22;32477;51.474;5.696;2023-03-01T09:45:40;8.00;92.10
46732;DHT22;32477;51.474;5.696;2023-03-01T09:48:15;8.50;90.80
46732;DHT22;32477;51.474;5.696;2023-03-01T09:50:42;8.90;91.20
46732;DHT22;32477;51.474;5.696;2023-03-01T09:53:13;9.60;90.20
46732;DHT22;32477;51.474;5.696;2023-03-01T09:55:48;8.90;89.70
46732;DHT22;32477;51.474;5.696;2023-03-01T09:58:26;8.80;90.10
46732;DHT22;32477;51.474;5.696;2023-03-01T10:00:57;9.10;90.10
46732;DHT22;32477;51.474;5.696;2023-03-01T10:03:34;9.50;89.70
46732;DHT22;32477;51.474;5.696;2023-03-01T10:06:14;9.80;87.60
46732;DHT22;32477;51.474;5.696;2023-03-01T10:11:24;10.00;86.80
46732;DHT22;32477;51.474;5.696;2023-03-01T10:14:13;9.90;84.70
46732;DHT22;32477;51.474;5.696;2023-03-01T10:19:23;9.90;84.60
46732;DHT22;32477;51.474;5.696;2023-03-01T10:21:51;9.60;85.50
46732;DHT22;32477;51.474;5.696;2023-03-01T10:24:18;9.60;86.00
46732;DHT22;32477;51.474;5.696;2023-03-01T10:26:54;10.20;84.30
46732;DHT22;32477;51.474;5.696;2023-03-01T10:29:24;10.00;84.30
46732;DHT22;32477;51.474;5.696;2023-03-01T10:31:52;9.40;84.40
46732;DHT22;32477;51.474;5.696;2023-03-01T10:34:30;9.80;84.50
46732;DHT22;32477;51.474;5.696;2023-03-01T10:37:08;10.30;83.90
46732;DHT22;32477;51.474;5.696;2023-03-01T10:39:34;10.60;82.80
46732;DHT22;32477;51.474;5.696;2023-03-01T10:42:05;10.60;81.60
46732;DHT22;32477;51.474;5.696;2023-03-01T10:44:46;9.80;81.90
46732;DHT22;32477;51.474;5.696;2023-03-01T10:47:26;9.80;83.00
46732;DHT22;32477;51.474;5.696;2023-03-01T10:52:37;9.30;81.70
46732;DHT22;32477;51.474;5.696;2023-03-01T10:55:04;8.90;84.10
46732;DHT22;32477;51.474;5.696;2023-03-01T10:57:45;8.90;84.60
46732;DHT22;32477;51.474;5.696;2023-03-01T11:00:21;9.30;82.30
46732;DHT22;32477;51.474;5.696;2023-03-01T11:03:02;9.20;82.50
46732;DHT22;32477;51.474;5.696;2023-03-01T11:05:29;9.30;82.70
46732;DHT22;32477;51.474;5.696;2023-03-01T11:08:00;10.00;80.80
46732;DHT22;32477;51.474;5.696;2023-03-01T11:10:35;10.30;80.20
46732;DHT22;32477;51.474;5.696;2023-03-01T11:13:18;10.20;79.70
46732;DHT22;32477;51.474;5.696;2023-03-01T11:16:01;10.10;80.60
46732;DHT22;32477;51.474;5.696;2023-03-01T11:18:30;11.10;78.80
46732;DHT22;32477;51.474;5.696;2023-03-01T11:20:58;10.90;77.30
46732;DHT22;32477;51.474;5.696;2023-03-01T11:23:25;10.20;79.00
46732;DHT22;32477;51.474;5.696;2023-03-01T11:26:00;10.60;78.50
46732;DHT22;32477;51.474;5.696;2023-03-01T11:28:36;10.40;77.90
46732;DHT22;32477;51.474;5.696;2023-03-01T11:31:06;10.20;79.10
46732;DHT22;32477;51.474;5.696;2023-03-01T11:38:53;11.00;77.70
46732;DHT22;32477;51.474;5.696;2023-03-01T11:41:26;11.40;77.10
46732;DHT22;32477;51.474;5.696;2023-03-01T11:44:03;11.20;75.40
46732;DHT22;32477;51.474;5.696;2023-03-01T12:09:41;12.20;74.20
46732;DHT22;32477;51.474;5.696;2023-03-01T12:15:25;12.20;73.10
46732;DHT22;32477;51.474;5.696;2023-03-01T12:18:43;11.60;72.60
46732;DHT22;32477;51.474;5.696;2023-03-01T12:26:35;10.70;74.40
46732;DHT22;32477;51.474;5.696;2023-03-01T12:34:55;10.60;76.30
46732;DHT22;32477;51.474;5.696;2023-03-01T12:37:37;11.40;75.20
46732;DHT22;32477;51.474;5.696;2023-03-01T12:43:21;11.90;73.40
46732;DHT22;32477;51.474;5.696;2023-03-01T12:49:03;12.30;73.70
46732;DHT22;32477;51.474;5.696;2023-03-01T12:51:32;11.90;73.30
46732;DHT22;32477;51.474;5.696;2023-03-01T12:54:05;10.90;74.10
46732;DHT22;32477;51.474;5.696;2023-03-01T12:56:34;10.90;75.00
46732;DHT22;32477;51.474;5.696;2023-03-01T12:59:20;10.60;75.70
46732;DHT22;32477;51.474;5.696;2023-03-01T13:02:01;10.90;76.30
46732;DHT22;32477;51.474;5.696;2023-03-01T13:04:45;10.70;75.60
46732;DHT22;32477;51.474;5.696;2023-03-01T13:07:30;10.20;76.90
46732;DHT22;32477;51.474;5.696;2023-03-01T13:10:17;10.70;76.60
46732;DHT22;32477;51.474;5.696;2023-03-01T13:15:35;10.10;76.70
46732;DHT22;32477;51.474;5.696;2023-03-01T13:30:58;9.80;78.40
46732;DHT22;32477;51.474;5.696;2023-03-01T13:36:00;9.40;78.50
46732;DHT22;32477;51.474;5.696;2023-03-01T13:38:48;9.90;77.50
46732;DHT22;32477;51.474;5.696;2023-03-01T13:47:12;9.80;78.30
46732;DHT22;32477;51.474;5.696;2023-03-01T13:49:58;9.90;79.40
46732;DHT22;32477;51.474;5.696;2023-03-01T13:57:41;10.10;78.30
46732;DHT22;32477;51.474;5.696;2023-03-01T14:03:18;9.90;78.50
46732;DHT22;32477;51.474;5.696;2023-03-01T14:09:08;10.20;77.60
46732;DHT22;32477;51.474;5.696;2023-03-01T14:11:54;9.60;77.80
46732;DHT22;32477;51.474;5.696;2023-03-01T14:14:46;9.30;79.80
46732;DHT22;32477;51.474;5.696;2023-03-01T14:20:22;8.90;81.00
46732;DHT22;32477;51.474;5.696;2023-03-01T14:22:52;9.20;81.40
46732;DHT22;32477;51.474;5.696;2023-03-01T14:25:33;9.20;81.00
46732;DHT22;32477;51.474;5.696;2023-03-01T14:28:18;9.10;79.90
46732;DHT22;32477;51.474;5.696;2023-03-01T14:33:33;8.30;81.20
46732;DHT22;32477;51.474;5.696;2023-03-01T14:36:10;8.40;81.10
46732;DHT22;32477;51.474;5.696;2023-03-01T14:41:09;8.90;80.50
46732;DHT22;32477;51.474;5.696;2023-03-01T14:43:38;8.90;80.30
46732;DHT22;32477;51.474;5.696;2023-03-01T14:46:15;8.80;81.50
46732;DHT22;32477;51.474;5.696;2023-03-01T14:48:41;8.50;82.50
46732;DHT22;32477;51.474;5.696;2023-03-01T14:51:07;8.40;83.10
46732;DHT22;32477;51.474;5.696;2023-03-01T14:53:33;8.60;82.00
46732;DHT22;32477;51.474;5.696;2023-03-01T14:56:02;8.70;81.90
46732;DHT22;32477;51.474;5.696;2023-03-01T14:58:28;9.00;81.30
46732;DHT22;32477;51.474;5.696;2023-03-01T15:00:58;9.20;80.60
46732;DHT22;32477;51.474;5.696;2023-03-01T15:03:34;9.50;79.80
46732;DHT22;32477;51.474;5.696;2023-03-01T15:06:02;9.20;78.80
46732;DHT22;32477;51.474;5.696;2023-03-01T15:08:29;9.30;79.60
46732;DHT22;32477;51.474;5.696;2023-03-01T15:13:33;9.20;79.70
46732;DHT22;32477;51.474;5.696;2023-03-01T15:16:05;9.20;79.90
46732;DHT22;32477;51.474;5.696;2023-03-01T15:18:32;9.10;80.20
46732;DHT22;32477;51.474;5.696;2023-03-01T15:21:22;9.20;80.00
46732;DHT22;32477;51.474;5.696;2023-03-01T15:26:52;9.00;79.80
46732;DHT22;32477;51.474;5.696;2023-03-01T15:29:25;9.00;80.10
46732;DHT22;32477;51.474;5.696;2023-03-01T15:34:29;8.80;81.00
46732;DHT22;32477;51.474;5.696;2023-03-01T15:36:56;7.80;83.00
46732;DHT22;32477;51.474;5.696;2023-03-01T15:39:37;7.20;85.10
46732;DHT22;32477;51.474;5.696;2023-03-01T15:42:13;7.00;86.60
46732;DHT22;32477;51.474;5.696;2023-03-01T15:44:42;6.90;87.40
46732;DHT22;32477;51.474;5.696;2023-03-01T15:47:33;6.90;87.40
46732;DHT22;32477;51.474;5.696;2023-03-01T15:50:00;6.70;86.80
46732;DHT22;32477;51.474;5.696;2023-03-01T15:52:27;6.60;87.10
46732;DHT22;32477;51.474;5.696;2023-03-01T15:55:01;6.60;87.80
46732;DHT22;32477;51.474;5.696;2023-03-01T15:57:27;6.60;88.40
46732;DHT22;32477;51.474;5.696;2023-03-01T15:59:53;6.60;89.00
46732;DHT22;32477;51.474;5.696;2023-03-01T16:02:19;6.60;90.20
46732;DHT22;32477;51.474;5.696;2023-03-01T16:04:46;6.50;90.50
46732;DHT22;32477;51.474;5.696;2023-03-01T16:07:13;6.50;90.60
46732;DHT22;32477;51.474;5.696;2023-03-01T16:09:38;6.40;90.90
46732;DHT22;32477;51.474;5.696;2023-03-01T16:12:05;6.40;91.20
46732;DHT22;32477;51.474;5.696;2023-03-01T16:14:31;6.40;91.80
46732;DHT22;32477;51.474;5.696;2023-03-01T16:16:56;6.30;91.40
46732;DHT22;32477;51.474;5.696;2023-03-01T16:19:22;6.30;90.50
46732;DHT22;32477;51.474;5.696;2023-03-01T16:21:55;6.30;90.60
46732;DHT22;32477;51.474;5.696;2023-03-01T16:24:21;6.20;91.20
46732;DHT22;32477;51.474;5.696;2023-03-01T16:26:47;6.20;91.20
46732;DHT22;32477;51.474;5.696;2023-03-01T16:29:12;6.10;91.20
46732;DHT22;32477;51.474;5.696;2023-03-01T16:31:38;6.10;91.40
46732;DHT22;32477;51.474;5.696;2023-03-01T16:34:04;6.00;91.70
46732;DHT22;32477;51.474;5.696;2023-03-01T16:36:29;5.90;91.70
46732;DHT22;32477;51.474;5.696;2023-03-01T16:38:58;5.90;92.40
46732;DHT22;32477;51.474;5.696;2023-03-01T16:41:24;5.90;92.40
46732;DHT22;32477;51.474;5.696;2023-03-01T16:43:50;5.90;92.70
46732;DHT22;32477;51.474;5.696;2023-03-01T16:46:27;5.80;92.60
46732;DHT22;32477;51.474;5.696;2023-03-01T16:48:54;5.70;92.60
46732;DHT22;32477;51.474;5.696;2023-03-01T16:51:21;5.70;93.30
46732;DHT22;32477;51.474;5.696;2023-03-01T16:53:47;5.60;93.10
46732;DHT22;32477;51.474;5.696;2023-03-01T16:56:14;5.50;93.30
46732;DHT22;32477;51.474;5.696;2023-03-01T16:58:40;5.40;94.00
46732;DHT22;32477;51.474;5.696;2023-03-01T17:01:08;5.40;94.10
46732;DHT22;32477;51.474;5.696;2023-03-01T17:03:36;5.40;94.30
46732;DHT22;32477;51.474;5.696;2023-03-01T17:06:07;5.20;94.90
46732;DHT22;32477;51.474;5.696;2023-03-01T17:08:33;5.10;95.20
46732;DHT22;32477;51.474;5.696;2023-03-01T17:11:10;5.00;95.70
46732;DHT22;32477;51.474;5.696;2023-03-01T17:13:37;4.90;96.40
46732;DHT22;32477;51.474;5.696;2023-03-01T17:16:05;4.90;97.00
46732;DHT22;32477;51.474;5.696;2023-03-01T17:18:31;4.70;98.00
46732;DHT22;32477;51.474;5.696;2023-03-01T17:20:56;4.60;98.80
46732;DHT22;32477;51.474;5.696;2023-03-01T17:23:22;4.60;99.10
46732;DHT22;32477;51.474;5.696;2023-03-01T17:25:48;4.50;99.50
46732;DHT22;32477;51.474;5.696;2023-03-01T17:28:13;4.40;99.90
46732;DHT22;32477;51.474;5.696;2023-03-01T17:30:43;4.30;99.90
46732;DHT22;32477;51.474;5.696;2023-03-01T17:33:10;4.20;99.90
46732;DHT22;32477;51.474;5.696;2023-03-01T17:35:36;4.30;99.90
46732;DHT22;32477;51.474;5.696;2023-03-01T17:38:03;4.20;99.90
46732;DHT22;32477;51.474;5.696;2023-03-01T17:40:29;4.20;99.90
46732;DHT22;32477;51.474;5.696;2023-03-01T17:42:56;4.10;99.90
46732;DHT22;32477;51.474;5.696;2023-03-01T17:45:21;4.00;99.90
46732;DHT22;32477;51.474;5.696;2023-03-01T17:47:47;3.90;99.90